aviador You're here:

KDTS Decoded Metar

DESTIN in FL, USA
Report Time2018-02-18 16:53:00
UTC Time2018-02-18 18:00:46
Flight Rules Old
WindVRB at 04 kt
Visibility9999 m
Phenomena:N/A
Clouds:N/A
Expected CloudBase > 2,800 ft AGL from Temp-Dew spread
CeilingNone
Temp25°C (ISA +10)
Dew Point18°C (65% RH)
QNH1024 hPa
Density Alt1,083 ft
Elevation16 ft
Report Wrong Elevation
Raw Report
KDTS 181653Z VRB04KT 10SM CLR 25/18 A3023 RMK AO2 SLP235
T02500183=

Extra information for KDTS:More info

Metar Taf Metar & Taf Last 4 Metars F.Rules Stats Wind Profile Meteogram Temp Stats Airport Information Weather charts Add Link Nearby VenuesMetar ALERT Operation Metar Decoded Social comments

AIRNAV info for KDTS